Terminal Aerodrome Forecast
Issued by NWS

Home | Current Version | Previous Version | Graphics & Text | Print | Product List | Glossary On
Versions: 1 2 3 4 5 6 7 8 9 10 11 12 13 14 15 16 17
787
FTUS43 KIWX 171148
TAFSBN
TAF
KSBN 171148Z 1712/1812 18003KT P6SM BKN200
     FM171600 19010KT P6SM SCT060 OVC200
     FM172200 21011KT P6SM -RASN OVC025
      TEMPO 1722/1802 5SM -RASN OVC015
     FM180300 27007KT P6SM OVC025=

USA.gov is the U.S. government's official web portal to all federal, state and local government web resources and services.